createdAt,value
2023-04-16T08:41:58.859Z,72.62
2023-04-16T08:44:43.870Z,70.35
2023-04-16T08:47:28.816Z,65.48
2023-04-16T08:50:13.728Z,62.75
2023-04-16T08:52:58.604Z,61.16
2023-04-16T08:55:43.598Z,58.14
2023-04-16T08:58:28.652Z,58.19
2023-04-16T09:01:14.268Z,58.80
2023-04-16T09:03:59.293Z,58.40
2023-04-16T09:06:44.156Z,58.66
2023-04-16T09:09:29.184Z,55.84
2023-04-16T09:12:14.070Z,56.28
2023-04-16T09:14:58.987Z,54.07
2023-04-16T09:17:43.980Z,53.69
2023-04-16T09:20:28.959Z,54.33
2023-04-16T09:23:14.094Z,52.55
2023-04-16T09:25:58.914Z,53.37
2023-04-16T09:28:43.845Z,52.88
2023-04-16T09:31:28.754Z,53.11
2023-04-16T09:34:14.372Z,54.37
2023-04-16T09:36:59.059Z,53.37
2023-04-16T09:39:44.169Z,53.05
2023-04-16T09:42:29.285Z,52.84
2023-04-16T09:45:14.303Z,52.89
2023-04-16T09:47:59.321Z,52.86
2023-04-16T09:50:44.317Z,54.34
2023-04-16T09:53:29.274Z,54.89
2023-04-16T09:56:14.124Z,54.39
2023-04-16T09:58:59.180Z,54.22
2023-04-16T10:01:44.369Z,54.69
2023-04-16T10:04:29.316Z,54.42
2023-04-16T10:07:14.148Z,55.00
2023-04-16T10:09:59.135Z,55.60
2023-04-16T10:12:44.131Z,55.29
2023-04-16T10:15:29.048Z,55.44
2023-04-16T10:18:14.063Z,56.15
2023-04-16T10:20:58.970Z,56.93
2023-04-16T10:23:44.041Z,56.40
2023-04-16T10:26:29.055Z,56.09
2023-04-16T10:29:13.828Z,56.88
2023-04-16T10:31:59.097Z,55.87
2023-04-16T10:34:43.991Z,55.16
2023-04-16T10:37:28.967Z,53.67
2023-04-16T10:40:13.867Z,51.36
2023-04-16T10:42:58.933Z,50.85
2023-04-16T10:45:43.780Z,50.73
2023-04-16T10:48:33.129Z,49.02
2023-04-16T10:51:27.371Z,48.22
2023-04-16T10:54:12.341Z,47.40
2023-04-16T10:56:57.331Z,50.06
2023-04-16T10:59:42.293Z,51.40
2023-04-16T11:02:27.960Z,50.53
2023-04-16T11:05:12.839Z,49.86
2023-04-16T11:07:57.729Z,48.75
2023-04-16T11:10:42.608Z,48.90
2023-04-16T11:13:27.494Z,49.90
2023-04-16T11:16:12.577Z,51.24
2023-04-16T11:18:57.565Z,49.89
2023-04-16T11:21:44.899Z,49.04
2023-04-16T11:24:30.423Z,49.44
2023-04-16T11:27:15.280Z,51.80
2023-04-16T11:30:00.221Z,49.83
2023-04-16T11:32:45.178Z,50.60
2023-04-16T11:35:30.029Z,50.21
2023-04-16T11:38:15.007Z,49.64
2023-04-16T11:41:00.209Z,50.85
2023-04-16T11:43:45.115Z,50.06
2023-04-16T11:46:30.150Z,48.56
2023-04-16T11:49:14.948Z,48.76
2023-04-16T11:51:59.905Z,46.81
2023-04-16T11:54:44.773Z,44.37
2023-04-16T11:57:29.655Z,45.23
2023-04-16T12:00:14.765Z,45.05
2023-04-16T12:02:59.807Z,44.32
2023-04-16T12:05:44.504Z,44.50
2023-04-16T12:08:29.339Z,45.34
2023-04-16T12:11:14.336Z,45.36
2023-04-16T12:13:59.216Z,43.92
2023-04-16T12:16:44.312Z,45.46
2023-04-16T12:19:29.136Z,43.45
2023-04-16T12:22:14.013Z,45.93
2023-04-16T12:24:59.092Z,45.84
2023-04-16T12:27:44.030Z,46.76
2023-04-16T12:30:28.848Z,44.64
2023-04-16T12:33:13.691Z,48.29
2023-04-16T12:35:58.721Z,44.73
2023-04-16T12:38:44.117Z,44.92
2023-04-16T12:41:29.188Z,46.57
2023-04-16T12:44:14.204Z,44.94
2023-04-16T12:46:59.165Z,44.02
2023-04-16T12:49:44.159Z,44.58
2023-04-16T12:52:29.579Z,42.87
2023-04-16T12:55:14.583Z,44.71
2023-04-16T12:57:59.486Z,44.25
2023-04-16T13:00:44.840Z,44.88
2023-04-16T13:03:30.210Z,45.00
2023-04-16T13:06:29.151Z,44.05
2023-04-16T13:09:14.280Z,43.18
2023-04-16T13:11:59.863Z,43.00
2023-04-16T13:14:45.279Z,43.32
2023-04-16T13:17:30.578Z,42.44
2023-04-16T13:20:15.601Z,44.31
2023-04-16T13:23:01.453Z,43.35
2023-04-16T13:25:46.478Z,41.26
2023-04-16T13:28:31.486Z,42.02
2023-04-16T13:31:28.209Z,43.04
2023-04-16T13:34:13.613Z,42.92
2023-04-16T13:36:58.593Z,43.22
2023-04-16T13:39:43.776Z,43.75
2023-04-16T13:42:28.537Z,43.66
2023-04-16T13:45:13.685Z,42.09
2023-04-16T13:47:58.494Z,41.49
2023-04-16T13:50:43.467Z,41.56
2023-04-16T13:53:28.456Z,42.50
2023-04-16T13:56:13.498Z,42.64
2023-04-16T13:58:58.881Z,42.77
2023-04-16T14:01:43.632Z,42.38
2023-04-16T14:04:28.352Z,42.81
2023-04-16T14:07:13.218Z,42.79
2023-04-16T14:09:58.393Z,42.48
2023-04-16T14:12:43.135Z,42.66
2023-04-16T14:15:28.299Z,42.05
2023-04-16T14:18:13.193Z,43.34
2023-04-16T14:20:58.064Z,41.43
2023-04-16T14:23:43.218Z,42.02
2023-04-16T14:26:28.079Z,42.72
2023-04-16T14:29:13.076Z,42.09
2023-04-16T14:31:57.901Z,42.03
2023-04-16T14:34:42.813Z,42.11
2023-04-16T14:37:27.683Z,41.27
2023-04-16T14:40:12.566Z,40.79
2023-04-16T14:42:57.422Z,40.38
2023-04-16T14:45:42.357Z,40.98
2023-04-16T14:48:27.126Z,41.55
2023-04-16T14:51:12.118Z,41.76
2023-04-16T14:53:57.190Z,41.08
2023-04-16T14:56:42.166Z,40.46
2023-04-16T14:59:27.192Z,41.33
2023-04-16T15:02:12.201Z,40.63
2023-04-16T15:04:57.071Z,41.02
2023-04-16T15:07:41.898Z,41.33
2023-04-16T15:10:26.810Z,40.79
2023-04-16T15:13:11.925Z,41.29
2023-04-16T15:15:56.941Z,41.06
2023-04-16T15:18:41.979Z,40.71
2023-04-16T15:21:26.834Z,40.09
2023-04-16T15:24:12.040Z,40.59
2023-04-16T15:26:56.860Z,40.57
2023-04-16T15:29:41.863Z,39.13
2023-04-16T15:32:27.014Z,40.70
2023-04-16T15:35:11.909Z,40.15
2023-04-16T15:37:56.964Z,40.08
2023-04-16T15:40:41.897Z,40.58
2023-04-16T15:43:26.797Z,40.67
2023-04-16T15:46:11.846Z,40.58
2023-04-16T15:48:56.732Z,40.99
2023-04-16T15:51:41.682Z,41.31
2023-04-16T15:54:26.660Z,41.28
2023-04-16T15:57:11.685Z,39.98
2023-04-16T16:00:06.497Z,40.71
2023-04-16T16:02:52.232Z,40.93
2023-04-16T16:05:37.324Z,39.93
2023-04-16T16:08:22.174Z,41.16
2023-04-16T16:11:07.152Z,40.77
2023-04-16T16:13:52.312Z,42.00
2023-04-16T16:16:37.322Z,41.55
2023-04-16T16:19:22.298Z,41.27
2023-04-16T16:22:07.196Z,41.18
2023-04-16T16:24:52.213Z,41.43
2023-04-16T16:27:37.145Z,41.89
2023-04-16T16:30:22.064Z,42.67
2023-04-16T16:33:07.216Z,41.61
2023-04-16T16:35:52.274Z,41.17
2023-04-16T16:38:37.241Z,41.46
2023-04-16T16:41:22.189Z,41.86
2023-04-16T16:44:07.182Z,41.70
2023-04-16T16:46:52.031Z,41.95
2023-04-16T16:49:36.997Z,41.63
2023-04-16T16:52:21.749Z,41.92
2023-04-16T16:55:06.710Z,41.13
2023-04-16T16:57:51.659Z,42.29
2023-04-16T17:00:36.645Z,41.69
2023-04-16T17:03:21.719Z,41.63
2023-04-16T17:06:06.448Z,42.22
2023-04-16T17:08:51.427Z,42.70
2023-04-16T17:11:36.298Z,42.96
2023-04-16T17:14:24.373Z,43.63
2023-04-16T17:17:09.309Z,42.49
2023-04-16T17:19:54.004Z,42.52
2023-04-16T17:22:39.020Z,44.20
2023-04-16T17:25:24.781Z,43.84
2023-04-16T17:28:12.795Z,43.88
2023-04-16T17:30:57.668Z,44.70
2023-04-16T17:33:42.584Z,44.05
2023-04-16T17:36:27.387Z,43.51
2023-04-16T17:39:12.391Z,43.83
2023-04-16T17:41:57.252Z,44.20
2023-04-16T17:44:42.209Z,45.12
2023-04-16T17:47:28.473Z,44.66
2023-04-16T17:50:13.321Z,44.21
2023-04-16T17:52:58.443Z,44.49
2023-04-16T17:55:43.910Z,45.30
2023-04-16T17:58:29.101Z,46.17
2023-04-16T18:01:14.285Z,46.80
2023-04-16T18:03:59.338Z,47.10
2023-04-16T18:06:44.478Z,47.74
2023-04-16T18:09:29.823Z,47.45
2023-04-16T18:12:15.231Z,47.29
2023-04-16T18:14:59.903Z,47.64
2023-04-16T18:17:44.873Z,47.86
2023-04-16T18:20:29.878Z,47.96
2023-04-16T18:23:14.806Z,47.90
2023-04-16T18:25:59.790Z,47.97
2023-04-16T18:28:45.411Z,48.03
2023-04-16T18:31:30.431Z,48.93
2023-04-16T18:34:15.151Z,48.80
2023-04-16T18:36:59.979Z,49.06
2023-04-16T18:39:44.693Z,48.76
2023-04-16T18:42:31.768Z,48.78
2023-04-16T18:45:21.145Z,48.82
2023-04-16T18:48:06.733Z,48.75
2023-04-16T18:50:51.725Z,49.29
2023-04-16T18:53:36.584Z,48.88
2023-04-16T18:56:21.357Z,48.94
2023-04-16T18:59:06.161Z,49.01
2023-04-16T19:01:53.381Z,49.25
2023-04-16T19:04:38.383Z,49.59
2023-04-16T19:07:23.359Z,49.79
2023-04-16T19:10:08.091Z,50.12
2023-04-16T19:12:52.932Z,50.79
2023-04-16T19:15:37.803Z,50.83
2023-04-16T19:18:22.589Z,51.10
2023-04-16T19:21:07.650Z,51.09
2023-04-16T19:23:52.467Z,51.35
2023-04-16T19:26:37.454Z,51.52
2023-04-16T19:29:22.316Z,51.96
2023-04-16T19:32:07.263Z,52.40
2023-04-16T19:34:51.994Z,52.22
2023-04-16T19:37:36.670Z,52.10
2023-04-16T19:40:21.618Z,51.78
2023-04-16T19:43:06.334Z,51.85
2023-04-16T19:45:51.284Z,51.79
2023-04-16T19:48:35.874Z,52.29
2023-04-16T19:51:21.028Z,52.08
2023-04-16T19:54:05.790Z,51.61
2023-04-16T19:56:50.770Z,51.72
2023-04-16T19:59:35.835Z,51.89
2023-04-16T20:02:20.673Z,52.16
2023-04-16T20:05:05.383Z,52.46
2023-04-16T20:07:52.566Z,52.28
2023-04-16T20:10:37.719Z,52.28
2023-04-16T20:13:22.561Z,52.31
2023-04-16T20:16:07.504Z,52.26
2023-04-16T20:18:52.484Z,52.81
2023-04-16T20:21:37.522Z,52.61
2023-04-16T20:24:22.274Z,52.68
2023-04-16T20:27:07.185Z,52.84
2023-04-16T20:29:51.954Z,53.16
2023-04-16T20:32:36.821Z,53.41
2023-04-16T20:35:21.643Z,53.54
2023-04-16T20:38:06.520Z,53.59
2023-04-16T20:40:51.847Z,52.82
2023-04-16T20:43:36.948Z,52.71
2023-04-16T20:46:22.648Z,52.91
2023-04-16T20:49:09.034Z,52.86
2023-04-16T20:51:53.920Z,53.36
2023-04-16T20:54:38.604Z,53.22
2023-04-16T20:57:23.451Z,53.42
2023-04-16T21:00:08.306Z,53.21
2023-04-16T21:02:53.516Z,53.07
2023-04-16T21:05:38.228Z,53.10
2023-04-16T21:08:23.234Z,53.64
2023-04-16T21:11:08.009Z,53.42
2023-04-16T21:13:52.810Z,53.80
2023-04-16T21:16:37.653Z,53.35
2023-04-16T21:19:22.634Z,53.35
2023-04-16T21:22:07.499Z,53.77
2023-04-16T21:24:52.468Z,53.63
2023-04-16T21:27:37.521Z,53.04
2023-04-16T21:30:22.311Z,53.03
2023-04-16T21:33:07.206Z,53.04
2023-04-16T21:35:52.064Z,53.00
2023-04-16T21:38:37.096Z,53.24
2023-04-16T21:41:21.877Z,53.44
2023-04-16T21:44:06.865Z,53.65
2023-04-16T21:46:51.636Z,53.72
2023-04-16T21:49:36.701Z,54.32
2023-04-16T21:52:21.767Z,54.72
2023-04-16T21:55:06.567Z,55.11
2023-04-16T21:57:51.578Z,55.02
2023-04-16T22:00:36.597Z,55.19
2023-04-16T22:03:21.812Z,54.85
2023-04-16T22:06:06.609Z,54.77
2023-04-16T22:08:51.678Z,54.58
2023-04-16T22:11:36.664Z,54.93
2023-04-16T22:14:21.765Z,54.77
2023-04-16T22:17:06.629Z,54.66
2023-04-16T22:19:51.513Z,55.11
2023-04-16T22:22:36.667Z,55.21
2023-04-16T22:25:21.466Z,54.87
2023-04-16T22:28:06.162Z,55.05
2023-04-16T22:30:51.219Z,55.37
2023-04-16T22:33:36.419Z,55.35
2023-04-16T22:36:21.131Z,55.39
2023-04-16T22:39:06.281Z,55.70
2023-04-16T22:41:51.587Z,56.06
2023-04-16T22:44:36.379Z,55.99
2023-04-16T22:47:21.570Z,56.25
2023-04-16T22:50:06.488Z,55.78
2023-04-16T22:52:51.171Z,55.78
2023-04-16T22:55:36.057Z,56.19
2023-04-16T22:58:21.034Z,56.28
2023-04-16T23:01:06.080Z,55.88
2023-04-16T23:03:51.171Z,55.63
2023-04-16T23:06:36.101Z,56.02
2023-04-16T23:09:21.165Z,55.91
2023-04-16T23:12:06.142Z,56.10
2023-04-16T23:14:51.104Z,56.10
2023-04-16T23:17:36.069Z,56.18
2023-04-16T23:20:20.820Z,56.03
2023-04-16T23:23:05.784Z,56.30
2023-04-16T23:25:50.604Z,56.15
2023-04-16T23:28:35.585Z,55.89
2023-04-16T23:31:20.637Z,56.19
2023-04-16T23:34:05.425Z,56.24
2023-04-16T23:36:50.424Z,56.21
2023-04-16T23:39:35.342Z,56.38
2023-04-16T23:42:20.327Z,56.48
2023-04-16T23:45:05.135Z,56.63
2023-04-16T23:47:50.119Z,56.96
2023-04-16T23:50:35.211Z,57.24
2023-04-16T23:53:20.345Z,57.31
2023-04-16T23:56:05.398Z,57.68
2023-04-16T23:58:50.132Z,57.61
